Time;durP1;ratioP1;P1;durP2;ratioP2;P2;SDS_P1;SDS_P2;PMS_P1;PMS_P2;Temp;Humidity;BMP_temperature;BMP_pressure;BME280_temperature;BME280_humidity;BME280_pressure;Samples;Min_cycle;Max_cycle;Signal;HPM_P1;HPM_P2
2022/04/25 00:00:27;;;;;;;3.30;2.53;;;14.30;99.90;;;;;;1035168;28;20010;-65
2022/04/25 00:00:58;;;;;;;4.17;2.80;;;14.30;99.90;;;;;;1034933;28;20025;-65
2022/04/25 00:01:28;;;;;;;4.03;2.57;;;14.30;99.90;;;;;;1039259;28;20017;-66
2022/04/25 00:01:59;;;;;;;3.67;2.43;;;14.30;99.90;;;;;;1038894;28;20017;-66
2022/04/25 00:02:30;;;;;;;3.73;2.50;;;14.30;99.90;;;;;;1039644;28;20099;-66
2022/04/25 00:03:01;;;;;;;3.33;2.40;;;14.30;99.90;;;;;;1039324;28;20096;-66
2022/04/25 00:03:32;;;;;;;4.63;2.85;;;14.30;99.90;;;;;;1039402;28;20049;-66
2022/04/25 00:04:04;;;;;;;4.20;3.47;;;14.30;99.90;;;;;;1039288;28;20479;-66
2022/04/25 00:04:34;;;;;;;4.82;2.67;;;14.40;99.90;;;;;;1039639;28;20014;-66
2022/04/25 00:05:05;;;;;;;4.60;3.03;;;14.40;99.90;;;;;;1039350;28;20014;-65
2022/04/25 00:05:36;;;;;;;5.55;2.83;;;14.30;99.90;;;;;;1038658;28;20024;-65
2022/04/25 00:06:07;;;;;;;3.93;2.60;;;14.30;99.90;;;;;;1035919;28;20067;-65
2022/04/25 00:06:37;;;;;;;3.20;2.13;;;14.30;99.90;;;;;;1039471;28;20376;-64
2022/04/25 00:07:08;;;;;;;2.93;2.43;;;14.30;99.90;;;;;;1039416;28;20020;-65
2022/04/25 00:07:38;;;;;;;4.17;2.40;;;14.30;99.90;;;;;;1039409;28;20065;-65
2022/04/25 00:08:09;;;;;;;4.40;2.97;;;14.30;99.90;;;;;;1039547;28;20100;-64
2022/04/25 00:08:39;;;;;;;4.97;3.10;;;14.30;99.90;;;;;;1039131;28;20040;-64
2022/04/25 00:09:10;;;;;;;4.97;2.73;;;14.30;99.90;;;;;;1039143;28;20018;-66
2022/04/25 00:09:40;;;;;;;4.93;3.07;;;14.30;99.90;;;;;;1041038;28;20017;-65
2022/04/25 00:10:11;;;;;;;4.73;2.93;;;14.30;99.90;;;;;;1039321;28;20619;-65
2022/04/25 00:10:42;;;;;;;5.80;2.70;;;14.30;99.90;;;;;;1039342;28;20024;-65
2022/04/25 00:11:12;;;;;;;2.70;2.30;;;14.30;99.90;;;;;;1039649;28;20022;-66
2022/04/25 00:11:43;;;;;;;2.23;2.03;;;14.30;99.90;;;;;;1039285;28;20481;-65
2022/04/25 00:12:14;;;;;;;4.23;2.80;;;14.30;99.90;;;;;;1039934;28;20033;-66
2022/04/25 00:12:44;;;;;;;3.57;2.40;;;14.30;99.90;;;;;;1039798;28;20021;-65
2022/04/25 00:13:15;;;;;;;3.63;2.70;;;14.30;99.90;;;;;;1039920;28;20112;-66
2022/04/25 00:13:46;;;;;;;5.35;2.67;;;14.30;99.90;;;;;;1035715;28;20056;-66
2022/04/25 00:14:16;;;;;;;3.93;2.70;;;14.30;99.90;;;;;;1035762;28;20045;-65
2022/04/25 00:14:47;;;;;;;5.37;2.73;;;14.30;99.90;;;;;;1035790;28;20018;-65
2022/04/25 00:15:17;;;;;;;2.80;2.27;;;14.30;99.90;;;;;;1036007;28;20049;-65
2022/04/25 00:15:48;;;;;;;2.53;2.33;;;14.30;99.90;;;;;;1036143;28;20118;-65
2022/04/25 00:16:18;;;;;;;3.33;2.77;;;14.30;99.90;;;;;;1036126;28;20042;-66
2022/04/25 00:16:55;;;;;;;5.93;2.80;;;14.30;99.90;;;;;;1036190;28;20021;-66
2022/04/25 00:17:26;;;;;;;3.45;2.95;;;14.30;99.90;;;;;;1036241;28;20022;-67
2022/04/25 00:17:57;;;;;;;4.37;2.83;;;14.30;99.90;;;;;;1036022;28;20022;-67
2022/04/25 00:18:27;;;;;;;3.73;2.93;;;14.30;99.90;;;;;;1036385;28;20025;-66
2022/04/25 00:19:00;;;;;;;4.57;3.13;;;14.30;99.90;;;;;;1035907;28;20096;-67
2022/04/25 00:19:30;;;;;;;2.63;2.42;;;14.30;99.90;;;;;;1035864;28;20571;-68
2022/04/25 00:20:01;;;;;;;4.57;2.93;;;14.30;99.90;;;;;;1035667;28;20452;-66
2022/04/25 00:20:31;;;;;;;3.77;2.77;;;14.30;99.90;;;;;;1039373;28;20389;-66
2022/04/25 00:21:02;;;;;;;3.60;2.87;;;14.20;99.90;;;;;;1039781;28;20560;-66
2022/04/25 00:21:33;;;;;;;3.20;2.30;;;14.20;99.90;;;;;;1040159;28;20044;-66
2022/04/25 00:22:03;;;;;;;4.87;2.50;;;14.20;99.90;;;;;;1040073;28;20071;-66
2022/04/25 00:22:35;;;;;;;3.30;3.00;;;14.20;99.90;;;;;;1039994;28;20152;-66
2022/04/25 00:23:05;;;;;;;3.92;2.95;;;14.20;99.90;;;;;;1039963;28;20104;-66
2022/04/25 00:23:36;;;;;;;3.63;2.73;;;14.20;99.90;;;;;;1039819;28;20017;-66
2022/04/25 00:24:06;;;;;;;5.27;3.23;;;14.20;99.90;;;;;;1039985;28;20445;-67
2022/04/25 00:24:37;;;;;;;4.00;2.63;;;14.20;99.90;;;;;;1040132;28;20021;-66
2022/04/25 00:25:08;;;;;;;3.70;2.97;;;14.20;99.90;;;;;;1040167;28;20152;-67
2022/04/25 00:25:38;;;;;;;3.63;2.60;;;14.20;99.90;;;;;;1040088;28;20428;-66
2022/04/25 00:26:09;;;;;;;2.93;2.53;;;14.20;99.90;;;;;;1040233;28;20712;-66
2022/04/25 00:26:39;;;;;;;3.20;2.30;;;14.20;99.90;;;;;;1040219;28;20461;-65
2022/04/25 00:27:12;;;;;;;4.27;2.80;;;14.20;99.90;;;;;;1040276;28;20040;-67
2022/04/25 00:27:43;;;;;;;4.72;3.08;;;14.20;99.90;;;;;;1039775;28;20104;-66
2022/04/25 00:28:14;;;;;;;3.70;2.40;;;14.10;99.90;;;;;;1040062;28;20163;-66
2022/04/25 00:28:44;;;;;;;3.03;2.43;;;14.10;99.90;;;;;;1035606;28;20021;-66
2022/04/25 00:29:15;;;;;;;4.53;3.33;;;14.10;99.90;;;;;;1036028;28;20253;-64
2022/04/25 00:29:46;;;;;;;2.58;2.05;;;14.10;99.90;;;;;;1039619;28;20005;-66
2022/04/25 00:30:16;;;;;;;3.60;2.80;;;14.20;99.90;;;;;;1039959;28;20053;-65
2022/04/25 00:30:47;;;;;;;3.53;2.80;;;14.10;99.90;;;;;;1040127;28;20010;-65
2022/04/25 00:31:17;;;;;;;3.57;2.47;;;14.10;99.90;;;;;;1040214;28;20020;-65
2022/04/25 00:31:48;;;;;;;3.20;2.70;;;14.10;99.90;;;;;;1039747;28;20009;-67
2022/04/25 00:32:19;;;;;;;3.00;2.70;;;14.10;99.90;;;;;;1039766;28;20028;-65
2022/04/25 00:32:49;;;;;;;3.57;2.60;;;14.10;99.90;;;;;;1039774;28;20110;-67
2022/04/25 00:33:20;;;;;;;4.23;2.93;;;14.10;99.90;;;;;;1035930;28;20061;-66
2022/04/25 00:33:50;;;;;;;4.63;3.07;;;14.10;99.90;;;;;;1039652;28;20477;-65
2022/04/25 00:34:21;;;;;;;5.83;2.80;;;14.10;99.90;;;;;;1038325;28;20013;-67
2022/04/25 00:34:51;;;;;;;3.13;2.37;;;14.10;99.90;;;;;;1035624;28;20149;-66
2022/04/25 00:35:22;;;;;;;4.60;2.83;;;14.10;99.90;;;;;;1035979;28;20022;-66
2022/04/25 00:35:53;;;;;;;5.07;2.80;;;14.10;99.90;;;;;;1035892;28;20022;-66
2022/04/25 00:36:24;;;;;;;4.73;2.90;;;14.10;99.90;;;;;;1036126;28;20014;-66
2022/04/25 00:36:54;;;;;;;3.60;3.03;;;14.10;99.90;;;;;;1037554;28;20991;-66
2022/04/25 00:37:25;;;;;;;4.27;3.07;;;14.10;99.90;;;;;;1040001;28;20044;-67
2022/04/25 00:37:55;;;;;;;4.87;2.80;;;14.10;99.90;;;;;;1039952;28;20029;-67
2022/04/25 00:38:26;;;;;;;5.77;2.90;;;14.10;99.90;;;;;;1039940;28;20072;-67
2022/04/25 00:38:56;;;;;;;2.70;2.50;;;14.10;99.90;;;;;;1039727;28;20009;-68
2022/04/25 00:39:27;;;;;;;3.23;2.90;;;14.10;99.90;;;;;;1039989;28;20097;-66
2022/04/25 00:39:58;;;;;;;3.37;2.40;;;14.10;99.90;;;;;;1039673;28;20089;-66
2022/04/25 00:40:28;;;;;;;3.60;2.63;;;14.10;99.90;;;;;;1040225;28;20067;-65
2022/04/25 00:40:59;;;;;;;3.03;2.50;;;14.10;99.90;;;;;;1040114;28;20100;-68
2022/04/25 00:41:30;;;;;;;6.37;2.90;;;14.10;99.90;;;;;;1040251;28;20063;-66
2022/04/25 00:42:01;;;;;;;3.10;2.75;;;14.10;99.90;;;;;;1040020;28;20014;-66
2022/04/25 00:42:32;;;;;;;3.10;2.80;;;14.10;99.90;;;;;;1040325;28;20017;-66
2022/04/25 00:43:03;;;;;;;3.30;2.75;;;14.10;99.90;;;;;;1040038;28;20084;-66
2022/04/25 00:43:33;;;;;;;3.15;2.78;;;14.10;99.90;;;;;;1040005;28;20018;-65
2022/04/25 00:44:04;;;;;;;6.90;3.27;;;14.10;99.90;;;;;;1040052;28;20017;-67
2022/04/25 00:44:34;;;;;;;3.03;2.73;;;14.10;99.90;;;;;;1040253;28;20108;-66
2022/04/25 00:45:05;;;;;;;3.67;2.60;;;14.00;99.90;;;;;;1039721;28;20504;-67
2022/04/25 00:45:37;;;;;;;5.53;3.10;;;14.10;99.90;;;;;;1039817;28;20034;-66
2022/04/25 00:46:23;;;;;;;4.63;3.17;;;14.00;99.90;;;;;;1039867;28;20274;-67
2022/04/25 00:46:55;;;;;;;3.72;2.80;;;14.10;99.90;;;;;;1040040;28;20010;-66
2022/04/25 00:47:26;;;;;;;3.78;2.53;;;14.10;99.90;;;;;;1040278;28;20017;-67
2022/04/25 00:47:58;;;;;;;3.85;2.65;;;14.10;99.90;;;;;;1039929;28;20641;-67
2022/04/25 00:48:29;;;;;;;3.65;3.17;;;14.10;99.90;;;;;;1040210;28;20094;-67
2022/04/25 00:48:59;;;;;;;4.03;2.80;;;14.10;99.90;;;;;;1040049;28;20025;-66
2022/04/25 00:49:30;;;;;;;5.20;3.27;;;14.10;99.90;;;;;;1040089;28;20017;-67
2022/04/25 00:50:01;;;;;;;4.88;2.92;;;14.00;99.90;;;;;;1040047;28;20021;-67
2022/04/25 00:50:31;;;;;;;4.93;3.00;;;14.00;99.90;;;;;;1040106;28;20026;-66
2022/04/25 00:51:02;;;;;;;2.83;2.40;;;14.00;99.90;;;;;;1039995;28;20469;-68
2022/04/25 00:51:33;;;;;;;4.90;2.87;;;14.00;99.90;;;;;;1040148;28;20075;-65
2022/04/25 00:52:04;;;;;;;3.47;2.67;;;14.00;99.90;;;;;;1040090;28;20468;-67
2022/04/25 00:52:36;;;;;;;3.58;2.83;;;14.00;99.90;;;;;;1040053;28;20021;-63
2022/04/25 00:53:07;;;;;;;4.25;3.08;;;14.00;99.90;;;;;;1040121;28;20018;-66
2022/04/25 00:53:39;;;;;;;3.53;2.75;;;14.00;99.90;;;;;;1039461;28;20369;-66
2022/04/25 00:54:10;;;;;;;3.65;2.90;;;14.00;99.90;;;;;;1040011;28;20029;-67
2022/04/25 00:54:41;;;;;;;4.25;2.92;;;14.00;99.90;;;;;;1039674;28;20029;-67
2022/04/25 00:55:12;;;;;;;3.58;3.10;;;14.00;99.90;;;;;;1039917;28;20380;-67
2022/04/25 00:55:43;;;;;;;3.50;2.73;;;14.00;99.90;;;;;;1039941;28;20636;-65
2022/04/25 00:56:16;;;;;;;2.80;2.37;;;14.00;99.90;;;;;;1040183;28;20142;-67
2022/04/25 00:56:48;;;;;;;3.45;2.80;;;14.00;99.90;;;;;;1040011;28;20016;-67
2022/04/25 00:57:20;;;;;;;3.97;3.00;;;14.00;99.90;;;;;;1040205;28;20014;-67
2022/04/25 00:57:52;;;;;;;4.50;2.70;;;14.00;99.90;;;;;;1039964;28;20496;-67
2022/04/25 00:58:23;;;;;;;4.03;2.83;;;13.90;99.90;;;;;;1039813;28;20512;-66
2022/04/25 00:58:54;;;;;;;3.77;3.37;;;14.00;99.90;;;;;;1040026;28;20022;-67
2022/04/25 00:59:25;;;;;;;4.60;3.00;;;13.90;99.90;;;;;;1040043;28;20018;-67
2022/04/25 00:59:57;;;;;;;4.65;3.03;;;13.90;99.90;;;;;;1039574;28;20010;-66
2022/04/25 01:00:28;;;;;;;3.05;2.63;;;13.90;99.90;;;;;;1039989;28;20014;-67
2022/04/25 01:00:58;;;;;;;7.03;3.27;;;13.90;99.90;;;;;;1039689;28;20006;-67
2022/04/25 01:01:31;;;;;;;3.20;2.73;;;13.90;99.90;;;;;;1039813;28;20018;-66
2022/04/25 01:02:02;;;;;;;3.30;2.63;;;13.90;99.90;;;;;;1039881;28;20625;-67
2022/04/25 01:02:32;;;;;;;4.63;3.13;;;13.90;99.90;;;;;;1040322;28;20597;-66
2022/04/25 01:03:03;;;;;;;3.13;2.60;;;13.90;99.90;;;;;;1039980;28;20005;-67
2022/04/25 01:03:34;;;;;;;5.15;2.88;;;13.90;99.90;;;;;;1039987;28;20041;-66
2022/04/25 01:04:05;;;;;;;7.07;3.30;;;13.90;99.90;;;;;;1039956;28;20052;-67
2022/04/25 01:04:35;;;;;;;3.50;2.90;;;13.90;99.90;;;;;;1040026;28;20384;-67
2022/04/25 01:05:07;;;;;;;5.13;3.03;;;13.90;99.90;;;;;;1040116;28;20508;-67
2022/04/25 01:05:38;;;;;;;3.65;2.83;;;13.90;99.90;;;;;;1039288;28;20022;-67
2022/04/25 01:06:08;;;;;;;7.67;3.60;;;13.90;99.90;;;;;;1041501;28;20017;-68
2022/04/25 01:06:39;;;;;;;4.03;2.93;;;13.90;99.90;;;;;;1039673;28;20468;-67
2022/04/25 01:07:10;;;;;;;4.15;2.83;;;13.90;99.90;;;;;;1039793;28;20380;-66
2022/04/25 01:07:41;;;;;;;4.53;3.17;;;13.90;99.90;;;;;;1039688;28;20341;-66
2022/04/25 01:08:12;;;;;;;3.10;2.50;;;13.90;99.90;;;;;;1040151;28;20335;-67
2022/04/25 01:08:43;;;;;;;4.13;2.60;;;13.90;99.90;;;;;;1039878;28;20248;-66
2022/04/25 01:09:14;;;;;;;3.20;2.85;;;13.90;99.90;;;;;;1040200;28;20092;-67
2022/04/25 01:09:44;;;;;;;3.83;3.00;;;13.90;99.90;;;;;;1039831;28;20012;-66
2022/04/25 01:10:15;;;;;;;3.73;2.83;;;13.90;99.90;;;;;;1039952;28;20379;-65
2022/04/25 01:10:46;;;;;;;4.10;3.37;;;13.90;99.90;;;;;;1040007;28;20017;-67
2022/04/25 01:11:17;;;;;;;3.47;3.00;;;13.90;99.90;;;;;;1040062;28;20121;-66
2022/04/25 01:11:48;;;;;;;3.38;2.38;;;13.90;99.90;;;;;;1039930;28;20016;-66
2022/04/25 01:12:18;;;;;;;3.57;2.67;;;13.90;99.90;;;;;;1040134;28;20052;-66
2022/04/25 01:12:49;;;;;;;5.43;3.37;;;13.90;99.90;;;;;;1040043;28;20021;-66
2022/04/25 01:13:19;;;;;;;3.87;3.43;;;13.90;99.90;;;;;;1040145;28;20831;-66
2022/04/25 01:13:50;;;;;;;4.87;3.00;;;13.90;99.90;;;;;;1039502;28;20025;-66
2022/04/25 01:14:21;;;;;;;5.23;2.90;;;13.90;99.90;;;;;;1039785;28;20025;-66
2022/04/25 01:15:14;;;;;;;3.42;2.97;;;13.90;99.90;;;;;;1039656;28;20088;-68
2022/04/25 01:15:44;;;;;;;6.35;3.10;;;13.90;99.90;;;;;;1039683;28;20071;-66
2022/04/25 01:16:15;;;;;;;4.33;3.13;;;13.90;99.90;;;;;;1040040;28;20079;-66
2022/04/25 01:16:47;;;;;;;5.80;3.10;;;13.90;99.90;;;;;;1039823;28;20021;-66
2022/04/25 01:17:18;;;;;;;4.32;3.33;;;13.90;99.90;;;;;;1040138;28;20017;-68
2022/04/25 01:17:48;;;;;;;5.30;3.47;;;13.90;99.90;;;;;;1039829;28;20027;-66
2022/04/25 01:18:19;;;;;;;7.97;3.47;;;13.90;99.90;;;;;;1039654;28;20106;-66
2022/04/25 01:18:49;;;;;;;4.50;3.23;;;13.90;99.90;;;;;;1039643;28;20756;-66
2022/04/25 01:19:20;;;;;;;5.27;3.33;;;13.90;99.90;;;;;;1039699;28;20553;-66
2022/04/25 01:19:51;;;;;;;3.57;2.60;;;13.90;99.90;;;;;;1039619;28;20056;-66
2022/04/25 01:20:21;;;;;;;4.17;2.67;;;13.90;99.90;;;;;;1039710;28;20059;-67
2022/04/25 01:20:56;;;;;;;4.20;2.90;;;13.90;99.90;;;;;;1039679;28;20017;-66
2022/04/25 01:21:28;;;;;;;5.85;3.35;;;13.90;99.90;;;;;;1039712;28;20447;-67
2022/04/25 01:22:12;;;;;;;5.45;3.15;;;13.90;99.90;;;;;;1036115;28;20022;-70
2022/04/25 01:22:55;;;;;;;5.00;2.80;;;13.90;99.90;;;;;;1039679;28;20014;-67
2022/04/25 01:27:33;;;;;;;3.45;2.67;;;13.90;99.90;;;;;;1040094;28;20076;-66
2022/04/25 01:28:04;;;;;;;6.00;3.20;;;13.90;99.90;;;;;;1039748;28;20022;-66
2022/04/25 01:28:35;;;;;;;3.80;3.23;;;13.90;99.90;;;;;;1040209;28;20017;-65
2022/04/25 01:29:06;;;;;;;3.20;2.90;;;13.90;99.90;;;;;;1039981;28;20416;-65
2022/04/25 01:29:37;;;;;;;3.92;3.47;;;13.90;99.90;;;;;;1039880;28;20377;-65
2022/04/25 01:30:09;;;;;;;3.97;3.00;;;13.90;99.90;;;;;;1040098;28;20088;-68
2022/04/25 01:30:40;;;;;;;4.82;3.15;;;13.80;99.90;;;;;;1039862;28;20013;-65
2022/04/25 01:31:10;;;;;;;4.33;3.67;;;13.90;99.90;;;;;;1040108;28;20013;-66
2022/04/25 01:31:41;;;;;;;6.43;3.40;;;13.90;99.90;;;;;;1039455;28;20014;-64
2022/04/25 01:32:12;;;;;;;5.17;3.30;;;13.80;99.90;;;;;;1039723;28;20152;-67
2022/04/25 01:32:42;;;;;;;4.77;3.33;;;13.80;99.90;;;;;;1039584;28;20041;-68
2022/04/25 01:33:13;;;;;;;4.53;3.63;;;13.80;99.90;;;;;;1039694;28;20257;-67
2022/04/25 01:33:44;;;;;;;3.63;3.20;;;13.80;99.90;;;;;;1039406;28;20033;-65
2022/04/25 01:34:15;;;;;;;4.00;3.30;;;13.80;99.90;;;;;;1039693;28;20017;-64
2022/04/25 01:34:46;;;;;;;3.83;3.20;;;13.80;99.90;;;;;;1039662;28;20018;-65
2022/04/25 01:35:16;;;;;;;4.50;3.10;;;13.80;99.90;;;;;;1039606;28;20017;-66
2022/04/25 01:35:47;;;;;;;5.70;3.30;;;13.80;99.90;;;;;;1039940;28;20020;-67
2022/04/25 01:36:22;;;;;;;4.23;3.63;;;13.80;99.90;;;;;;1040039;28;20465;-66
2022/04/25 01:36:53;;;;;;;4.60;2.72;;;13.80;99.90;;;;;;1039969;28;20010;-66
2022/04/25 01:37:23;;;;;;;4.17;2.97;;;13.70;99.90;;;;;;1039894;28;20009;-66
2022/04/25 01:37:54;;;;;;;5.87;3.27;;;13.70;99.90;;;;;;1039767;28;20014;-66
2022/04/25 01:38:25;;;;;;;5.95;3.42;;;13.70;99.90;;;;;;1039929;28;20020;-66
2022/04/25 01:38:55;;;;;;;4.90;3.30;;;13.70;99.90;;;;;;1039665;28;20017;-66
2022/04/25 01:39:26;;;;;;;4.23;3.20;;;13.70;99.90;;;;;;1039415;28;20017;-68
2022/04/25 01:39:57;;;;;;;3.67;2.90;;;13.70;99.90;;;;;;1039362;28;20017;-67
2022/04/25 01:40:27;;;;;;;4.05;3.47;;;13.70;99.90;;;;;;1039482;28;20018;-65
2022/04/25 01:40:58;;;;;;;5.40;3.57;;;13.70;99.90;;;;;;1039460;28;20021;-67
2022/04/25 01:41:29;;;;;;;3.73;3.10;;;13.70;99.90;;;;;;1039902;28;20099;-66
2022/04/25 01:41:59;;;;;;;4.70;3.47;;;13.70;99.90;;;;;;1039677;28;20670;-68
2022/04/25 01:42:30;;;;;;;4.47;3.00;;;13.70;99.90;;;;;;1040093;28;20016;-67
2022/04/25 01:43:01;;;;;;;5.67;3.67;;;13.70;99.90;;;;;;1039767;28;20468;-65
2022/04/25 01:43:37;;;;;;;4.03;2.80;;;13.70;99.90;;;;;;1039207;28;20679;-66
2022/04/25 01:44:08;;;;;;;5.45;3.17;;;13.70;99.90;;;;;;1037650;28;20025;-66
2022/04/25 01:44:39;;;;;;;4.30;2.93;;;13.70;99.90;;;;;;1035186;28;20036;-66
2022/04/25 01:45:10;;;;;;;5.05;2.90;;;13.70;99.90;;;;;;1035589;28;20064;-67
2022/04/25 01:45:41;;;;;;;5.17;3.07;;;13.70;99.90;;;;;;1035704;28;20010;-67
2022/04/25 01:46:11;;;;;;;4.07;3.67;;;13.70;99.90;;;;;;1039586;28;20692;-67
2022/04/25 01:46:42;;;;;;;6.47;3.00;;;13.70;99.90;;;;;;1039831;28;20025;-66
2022/04/25 01:47:13;;;;;;;4.10;3.13;;;13.70;99.90;;;;;;1039915;28;20015;-67
2022/04/25 01:47:44;;;;;;;4.82;3.33;;;13.70;99.90;;;;;;1039767;28;20463;-67
2022/04/25 01:48:15;;;;;;;4.45;3.05;;;13.70;99.90;;;;;;1039960;28;20029;-64
2022/04/25 01:48:45;;;;;;;4.80;3.07;;;13.70;99.90;;;;;;1039905;28;20018;-67
2022/04/25 01:49:16;;;;;;;3.07;2.70;;;13.70;99.90;;;;;;1039873;28;20017;-67
2022/04/25 01:49:46;;;;;;;3.50;3.20;;;13.70;99.90;;;;;;1039901;28;20020;-67
2022/04/25 01:50:17;;;;;;;5.50;3.40;;;13.70;99.90;;;;;;1039829;28;20010;-67
2022/04/25 01:50:49;;;;;;;7.40;3.53;;;13.70;99.90;;;;;;1039962;28;20640;-67
2022/04/25 01:51:20;;;;;;;4.93;3.17;;;13.70;99.90;;;;;;1039837;28;20540;-66
2022/04/25 01:51:50;;;;;;;5.37;2.83;;;13.70;99.90;;;;;;1039698;28;20449;-66
2022/04/25 01:52:21;;;;;;;4.63;3.57;;;13.70;99.90;;;;;;1039821;28;20005;-66
2022/04/25 01:52:52;;;;;;;3.33;2.93;;;13.70;99.90;;;;;;1035894;28;20014;-66
2022/04/25 01:53:22;;;;;;;4.47;3.30;;;13.70;99.90;;;;;;1035830;28;20018;-66
2022/04/25 01:53:53;;;;;;;5.10;3.37;;;13.70;99.90;;;;;;1035564;28;20029;-66
2022/04/25 01:54:26;;;;;;;3.90;3.23;;;13.70;99.90;;;;;;1035807;28;20104;-68
2022/04/25 01:54:58;;;;;;;4.72;3.55;;;13.70;99.90;;;;;;1035669;28;20022;-66
2022/04/25 01:55:29;;;;;;;6.20;3.30;;;13.70;99.90;;;;;;1035780;28;20025;-67
2022/04/25 01:56:00;;;;;;;3.93;3.53;;;13.70;99.90;;;;;;1035657;28;20032;-66
2022/04/25 01:56:30;;;;;;;5.80;2.80;;;13.60;99.90;;;;;;1035848;28;20112;-66
2022/04/25 01:57:01;;;;;;;3.40;2.80;;;13.60;99.90;;;;;;1039287;28;20035;-68
2022/04/25 01:57:31;;;;;;;6.00;2.90;;;13.60;99.90;;;;;;1039724;28;20017;-65
2022/04/25 01:58:02;;;;;;;5.07;3.77;;;13.60;99.90;;;;;;1039354;28;20045;-65
2022/04/25 01:58:33;;;;;;;4.97;3.47;;;13.60;99.90;;;;;;1039184;28;20025;-65
2022/04/25 01:59:03;;;;;;;3.87;3.33;;;13.60;99.90;;;;;;1039632;28;20060;-66
2022/04/25 01:59:34;;;;;;;5.80;4.17;;;13.60;99.90;;;;;;1039645;28;20009;-66
2022/04/25 02:00:05;;;;;;;5.57;3.63;;;13.60;99.90;;;;;;1039395;28;20179;-69
2022/04/25 02:00:36;;;;;;;4.60;2.90;;;13.60;99.90;;;;;;1039579;28;20029;-66
2022/04/25 02:01:07;;;;;;;3.63;3.30;;;13.60;99.90;;;;;;1039412;28;20104;-66
2022/04/25 02:01:37;;;;;;;5.97;3.40;;;13.60;99.90;;;;;;1039846;28;20024;-67
2022/04/25 02:02:08;;;;;;;5.33;3.87;;;13.60;99.90;;;;;;1039610;28;20032;-66
2022/04/25 02:02:38;;;;;;;7.63;3.23;;;13.60;99.90;;;;;;1039499;28;20009;-67
2022/04/25 02:03:10;;;;;;;4.03;3.57;;;13.60;99.90;;;;;;1039722;28;20013;-67
2022/04/25 02:03:42;;;;;;;5.55;3.55;;;13.60;99.90;;;;;;1039940;28;20032;-67
2022/04/25 02:04:12;;;;;;;5.72;3.53;;;13.60;99.90;;;;;;1039831;28;20016;-67
2022/04/25 02:04:43;;;;;;;7.50;4.00;;;13.60;99.90;;;;;;1039797;28;20062;-67
2022/04/25 02:05:14;;;;;;;5.10;3.07;;;13.60;99.90;;;;;;1039565;28;20059;-67
2022/04/25 02:05:44;;;;;;;5.03;3.50;;;13.60;99.90;;;;;;1039254;28;20051;-67
2022/04/25 02:06:15;;;;;;;3.83;3.00;;;13.60;99.90;;;;;;1039316;28;20033;-64
2022/04/25 02:06:46;;;;;;;4.47;3.17;;;13.60;99.90;;;;;;1035413;28;20018;-67
2022/04/25 02:07:17;;;;;;;5.25;3.38;;;13.60;99.90;;;;;;1039569;28;20625;-67
2022/04/25 02:07:47;;;;;;;6.77;3.13;;;13.60;99.90;;;;;;1039596;28;20400;-68
2022/04/25 02:08:18;;;;;;;5.00;2.90;;;13.60;99.90;;;;;;1039481;28;20010;-67
2022/04/25 02:08:48;;;;;;;3.90;3.27;;;13.60;99.90;;;;;;1039766;28;20002;-68
2022/04/25 02:09:20;;;;;;;6.07;3.30;;;13.60;99.90;;;;;;1039810;28;20055;-67
2022/04/25 02:09:51;;;;;;;5.63;3.65;;;13.60;99.90;;;;;;1039864;28;20005;-67
2022/04/25 02:10:21;;;;;;;5.17;3.40;;;13.60;99.90;;;;;;1039731;28;20024;-67
2022/04/25 02:11:41;;;;;;;4.55;2.95;;;13.60;99.90;;;;;;1036222;28;20460;-66
2022/04/25 02:12:12;;;;;;;7.03;3.67;;;13.60;99.90;;;;;;1035461;28;20038;-66
2022/04/25 02:12:43;;;;;;;4.50;3.43;;;13.60;99.90;;;;;;1035345;28;20462;-66
2022/04/25 02:13:15;;;;;;;4.60;3.17;;;13.60;99.90;;;;;;1035460;28;20428;-66
2022/04/25 02:13:46;;;;;;;4.65;3.38;;;13.60;99.90;;;;;;1035402;28;20018;-67
2022/04/25 02:14:17;;;;;;;6.50;4.30;;;13.60;99.90;;;;;;1035847;28;20096;-66
2022/04/25 02:14:47;;;;;;;5.27;3.40;;;13.60;99.90;;;;;;1035279;28;20381;-66
2022/04/25 02:15:18;;;;;;;4.40;2.83;;;13.60;99.90;;;;;;1035409;28;20010;-68
2022/04/25 02:15:48;;;;;;;5.53;3.10;;;13.60;99.90;;;;;;1035461;28;20349;-66
2022/04/25 02:16:21;;;;;;;5.53;3.50;;;13.60;99.90;;;;;;1035447;28;20045;-67
2022/04/25 02:16:51;;;;;;;4.05;3.25;;;13.60;99.90;;;;;;1035658;28;20049;-66
2022/04/25 02:17:22;;;;;;;4.63;3.30;;;13.60;99.90;;;;;;1035814;28;20063;-66
2022/04/25 02:17:52;;;;;;;3.47;2.90;;;13.60;99.90;;;;;;1035696;28;20017;-66
2022/04/25 02:18:23;;;;;;;4.30;3.20;;;13.60;99.90;;;;;;1035723;28;20033;-67
2022/04/25 02:18:54;;;;;;;4.20;3.07;;;13.60;99.90;;;;;;1035815;28;20006;-69
2022/04/25 02:19:26;;;;;;;3.63;3.15;;;13.60;99.90;;;;;;1035817;28;20018;-67
2022/04/25 02:19:56;;;;;;;5.22;3.42;;;13.60;99.90;;;;;;1035514;28;20010;-67
2022/04/25 02:20:27;;;;;;;5.53;4.93;;;13.50;99.90;;;;;;1035812;28;20068;-66
2022/04/25 02:20:57;;;;;;;5.83;3.80;;;13.50;99.90;;;;;;1035330;28;20018;-68
2022/04/25 02:21:28;;;;;;;3.03;2.77;;;13.60;99.90;;;;;;1035838;28;20064;-66
2022/04/25 02:21:58;;;;;;;4.73;3.03;;;13.50;99.90;;;;;;1035430;28;20029;-68
2022/04/25 02:22:29;;;;;;;7.10;3.47;;;13.50;99.90;;;;;;1035821;28;20021;-69
2022/04/25 02:22:59;;;;;;;6.87;3.70;;;13.50;99.90;;;;;;1035494;28;20022;-66
2022/04/25 02:23:30;;;;;;;5.23;3.53;;;13.50;99.90;;;;;;1035777;28;20068;-66
2022/04/25 02:24:00;;;;;;;5.03;3.73;;;13.50;99.90;;;;;;1035562;28;20339;-66
2022/04/25 02:24:31;;;;;;;4.30;3.60;;;13.50;99.90;;;;;;1035893;28;20477;-66
2022/04/25 02:25:02;;;;;;;4.30;3.37;;;13.50;99.90;;;;;;1039029;28;20568;-66
2022/04/25 02:25:32;;;;;;;4.10;3.17;;;13.50;99.90;;;;;;1039787;28;20052;-67
2022/04/25 02:26:05;;;;;;;4.30;3.40;;;13.50;99.90;;;;;;1039619;28;20104;-67
2022/04/25 02:26:35;;;;;;;3.65;3.25;;;13.50;99.90;;;;;;1039764;28;20456;-67
2022/04/25 02:27:07;;;;;;;4.83;3.30;;;13.50;99.90;;;;;;1039714;28;20013;-68
2022/04/25 02:27:38;;;;;;;4.40;3.33;;;13.50;99.90;;;;;;1039241;28;20013;-68
2022/04/25 02:28:08;;;;;;;4.30;3.20;;;13.50;99.90;;;;;;1039333;28;20393;-67
2022/04/25 02:28:40;;;;;;;3.23;2.90;;;13.50;99.90;;;;;;1039478;28;20020;-67
2022/04/25 02:29:10;;;;;;;5.95;3.60;;;13.50;99.90;;;;;;1039475;28;20028;-67
2022/04/25 02:29:41;;;;;;;4.03;3.37;;;13.50;99.90;;;;;;1039011;28;20025;-67
2022/04/25 02:30:12;;;;;;;4.67;3.63;;;13.40;99.90;;;;;;1039662;28;20028;-67
2022/04/25 02:30:42;;;;;;;5.13;3.63;;;13.50;99.90;;;;;;1039500;28;20021;-66
2022/04/25 02:31:13;;;;;;;4.20;3.63;;;13.40;99.90;;;;;;1039489;28;20116;-67
2022/04/25 02:31:44;;;;;;;4.73;3.40;;;13.40;99.90;;;;;;1039283;28;20116;-67
2022/04/25 02:32:15;;;;;;;4.90;3.17;;;13.40;99.90;;;;;;1039397;28;20060;-65
2022/04/25 02:32:46;;;;;;;4.28;3.38;;;13.40;99.90;;;;;;1039380;28;20389;-66
2022/04/25 02:33:18;;;;;;;5.37;3.53;;;13.50;99.90;;;;;;1039288;28;20520;-68
2022/04/25 02:33:48;;;;;;;4.53;3.08;;;13.40;99.90;;;;;;1039417;28;20072;-66
2022/04/25 02:34:19;;;;;;;5.60;3.20;;;13.40;99.90;;;;;;1039387;28;20357;-66
2022/04/25 02:34:53;;;;;;;3.97;3.53;;;13.40;99.90;;;;;;1039394;28;20100;-67
2022/04/25 02:35:24;;;;;;;4.38;3.30;;;13.40;99.90;;;;;;1038912;28;20014;-69
2022/04/25 02:35:54;;;;;;;7.00;4.20;;;13.40;99.90;;;;;;1035517;28;20515;-67
2022/04/25 02:36:25;;;;;;;4.27;3.17;;;13.40;99.90;;;;;;1039564;28;20064;-66
2022/04/25 02:36:56;;;;;;;4.10;3.40;;;13.40;99.90;;;;;;1039285;28;20093;-69
2022/04/25 02:37:26;;;;;;;4.82;3.72;;;13.40;99.90;;;;;;1039478;28;20024;-67
2022/04/25 02:37:57;;;;;;;3.40;2.97;;;13.40;99.90;;;;;;1039589;28;20021;-66
2022/04/25 02:38:28;;;;;;;4.90;3.73;;;13.40;99.90;;;;;;1039776;28;20018;-67
2022/04/25 02:38:59;;;;;;;4.13;3.35;;;13.40;99.90;;;;;;1039625;28;20014;-67
2022/04/25 02:39:29;;;;;;;3.80;3.17;;;13.40;99.90;;;;;;1039830;28;20024;-66
2022/04/25 02:40:00;;;;;;;6.33;3.47;;;13.40;99.90;;;;;;1039111;28;20032;-70
2022/04/25 02:40:30;;;;;;;4.70;3.40;;;13.40;99.90;;;;;;1039580;28;20018;-67
2022/04/25 02:41:04;;;;;;;5.10;3.77;;;13.40;99.90;;;;;;1039282;28;20101;-67
2022/04/25 02:41:35;;;;;;;6.60;3.10;;;13.40;99.90;;;;;;1039250;28;20025;-65
2022/04/25 02:42:06;;;;;;;4.10;3.00;;;13.40;99.90;;;;;;1039403;28;20121;-67
2022/04/25 02:42:36;;;;;;;5.03;3.47;;;13.40;99.90;;;;;;1039556;28;20021;-67
2022/04/25 02:43:07;;;;;;;4.40;3.20;;;13.40;99.90;;;;;;1039472;28;20453;-66
2022/04/25 02:43:42;;;;;;;5.60;3.43;;;13.40;99.90;;;;;;1039487;28;20071;-67
2022/04/25 02:44:13;;;;;;;4.47;3.15;;;13.40;99.90;;;;;;1039562;28;20021;-67
2022/04/25 02:44:43;;;;;;;3.80;3.13;;;13.40;99.90;;;;;;1039542;28;20029;-67
2022/04/25 02:45:14;;;;;;;7.10;3.50;;;13.40;99.90;;;;;;1039687;28;20855;-67
2022/04/25 02:45:44;;;;;;;4.07;3.30;;;13.40;99.90;;;;;;1039734;28;20488;-67
2022/04/25 02:46:17;;;;;;;4.50;3.60;;;13.40;99.90;;;;;;1039738;28;20025;-65
2022/04/25 02:46:48;;;;;;;6.28;3.70;;;13.40;99.90;;;;;;1039698;28;20520;-67
2022/04/25 02:47:18;;;;;;;4.83;3.60;;;13.40;99.90;;;;;;1039669;28;20489;-69